aviador You're here:

RJTY Decoded Metar

YOKOTA in JAPAN
Report Time2018-01-18 09:56:00
UTC Time2018-01-18 10:02:32
Flight Rules vfr VFR
WindCalm
Visibility9999 m
Phenomena:N/A
Clouds:N/A
CeilingNone
Temp08°C (ISA -6)
Dew Point08°C (100% RH)
AAT7.5°C
QNH1016 hPa
Density Alt-230 ft
Elevation456 ft
Report Wrong Elevation
Raw Report
METAR RJTY 180956Z AUTO 00000KT 9SM CLR 08/08 A3000 RMK AO2 SLP168
T00800077 FZRANO $=

Extra information for RJTY:More info

Metar Taf Metar & Taf Last 4 Metars F.Rules Stats Wind Profile Meteogram Temp Stats Airport Information Weather charts Add Link Nearby VenuesMetar ALERT Operation Metar Decoded Social comments